createdAt,value
2019-03-31T00:02:24.680Z,70.23
2019-03-31T00:04:54.364Z,75.80
2019-03-31T00:07:23.990Z,71.47
2019-03-31T00:09:53.752Z,78.40
2019-03-31T00:12:23.480Z,74.40
2019-03-31T00:14:53.276Z,73.77
2019-03-31T00:17:23.273Z,73.47
2019-03-31T00:19:53.880Z,82.00
2019-03-31T00:22:23.760Z,83.23
2019-03-31T00:24:53.778Z,85.17
2019-03-31T00:27:23.775Z,88.00
2019-03-31T00:29:53.387Z,80.77
2019-03-31T00:32:23.197Z,83.57
2019-03-31T00:34:54.409Z,85.43
2019-03-31T00:37:24.175Z,81.93
2019-03-31T00:39:56.502Z,83.97
2019-03-31T00:42:26.286Z,91.87
2019-03-31T00:45:00.599Z,84.13
2019-03-31T00:47:30.363Z,89.90
2019-03-31T00:50:03.280Z,83.93
2019-03-31T00:52:33.021Z,90.30
2019-03-31T00:55:02.754Z,88.97
2019-03-31T00:57:32.513Z,87.23
2019-03-31T01:00:05.598Z,94.63
2019-03-31T01:02:35.436Z,86.87
2019-03-31T01:05:07.686Z,88.23
2019-03-31T01:07:37.693Z,86.10
2019-03-31T01:10:08.263Z,84.67
2019-03-31T01:12:38.096Z,85.83
2019-03-31T01:15:11.521Z,87.37
2019-03-31T01:17:41.381Z,86.97
2019-03-31T01:20:12.522Z,91.87
2019-03-31T01:22:42.727Z,87.63
2019-03-31T01:25:14.814Z,90.97
2019-03-31T01:27:44.686Z,92.40
2019-03-31T01:30:17.184Z,93.57
2019-03-31T01:32:46.999Z,93.43
2019-03-31T01:35:19.381Z,88.87
2019-03-31T01:37:49.194Z,92.47
2019-03-31T01:40:18.924Z,85.50
2019-03-31T01:42:50.309Z,86.10
2019-03-31T01:45:20.040Z,89.07
2019-03-31T01:47:49.724Z,87.90
2019-03-31T01:50:20.342Z,88.90
2019-03-31T01:52:50.070Z,92.93
2019-03-31T01:55:19.702Z,89.20
2019-03-31T01:57:49.747Z,90.00
2019-03-31T02:00:28.966Z,89.00
2019-03-31T02:02:58.896Z,96.47
2019-03-31T02:05:30.094Z,90.77
2019-03-31T02:07:59.923Z,90.30
2019-03-31T02:10:31.100Z,89.13
2019-03-31T02:13:02.279Z,87.43
2019-03-31T02:15:31.945Z,92.90
2019-03-31T02:18:01.696Z,85.23
2019-03-31T02:20:31.346Z,91.33
2019-03-31T02:23:01.620Z,91.10
2019-03-31T02:25:31.550Z,92.30
2019-03-31T02:28:01.133Z,95.77
2019-03-31T02:30:30.785Z,94.37
2019-03-31T02:33:00.498Z,90.63
2019-03-31T02:35:30.509Z,91.17
2019-03-31T02:38:00.770Z,84.60
2019-03-31T02:40:30.633Z,92.23
2019-03-31T02:43:00.375Z,90.60
2019-03-31T02:45:30.904Z,87.70
2019-03-31T02:48:00.600Z,95.00
2019-03-31T02:50:45.460Z,90.07
2019-03-31T02:53:16.597Z,89.60
2019-03-31T02:55:47.363Z,93.07
2019-03-31T02:58:18.486Z,91.03
2019-03-31T03:00:48.646Z,92.03
2019-03-31T03:03:19.827Z,90.87
2019-03-31T03:05:50.589Z,88.83
2019-03-31T03:08:21.538Z,85.00
2019-03-31T03:10:52.845Z,88.67
2019-03-31T03:13:25.434Z,91.63
2019-03-31T03:16:05.502Z,91.83
2019-03-31T03:18:35.075Z,91.00
2019-03-31T03:21:05.909Z,84.03
2019-03-31T03:23:35.581Z,91.63
2019-03-31T03:26:05.504Z,93.73
2019-03-31T03:28:35.146Z,91.67
2019-03-31T03:31:05.247Z,94.10
2019-03-31T03:33:35.923Z,99.37
2019-03-31T03:36:05.554Z,97.03
2019-03-31T03:38:35.130Z,97.50
2019-03-31T03:41:06.415Z,95.67
2019-03-31T03:43:53.573Z,94.70
2019-03-31T03:46:07.454Z,97.60
2019-03-31T03:48:37.090Z,92.77
2019-03-31T03:51:06.723Z,94.70
2019-03-31T03:53:36.509Z,94.00
2019-03-31T03:56:06.239Z,95.83
2019-03-31T03:58:35.903Z,95.17
2019-03-31T04:01:07.468Z,83.63
2019-03-31T04:03:37.227Z,93.10
2019-03-31T04:06:07.805Z,88.87
2019-03-31T04:08:37.856Z,87.67
2019-03-31T04:11:21.558Z,90.73
2019-03-31T04:13:51.308Z,88.60
2019-03-31T04:16:21.000Z,86.63
2019-03-31T04:18:52.155Z,92.23
2019-03-31T04:21:21.815Z,91.53
2019-03-31T04:23:51.617Z,89.90
2019-03-31T04:26:21.231Z,81.30
2019-03-31T04:28:50.941Z,88.37
2019-03-31T04:31:20.595Z,87.60
2019-03-31T04:33:52.781Z,93.37
2019-03-31T04:36:21.785Z,85.40
2019-03-31T04:38:51.506Z,85.57
2019-03-31T04:41:21.303Z,87.53
2019-03-31T04:43:51.164Z,87.47
2019-03-31T04:46:22.260Z,87.67
2019-03-31T04:48:52.035Z,102.33
2019-03-31T04:51:21.767Z,92.30
2019-03-31T04:53:52.434Z,100.73
2019-03-31T04:56:22.174Z,92.47
2019-03-31T04:58:51.787Z,91.20
2019-03-31T05:01:21.458Z,96.03
2019-03-31T05:04:03.804Z,101.50
2019-03-31T05:06:23.849Z,96.97
2019-03-31T05:08:53.527Z,96.77
2019-03-31T05:11:23.197Z,102.47
2019-03-31T05:13:53.594Z,95.37
2019-03-31T05:16:23.143Z,97.70
2019-03-31T05:18:54.195Z,93.63
2019-03-31T05:21:23.985Z,96.60
2019-03-31T05:23:53.681Z,109.17
2019-03-31T05:26:23.848Z,103.53
2019-03-31T05:28:53.610Z,96.10
2019-03-31T05:31:23.248Z,100.13
2019-03-31T05:33:53.551Z,103.63
2019-03-31T05:36:23.139Z,97.57
2019-03-31T05:38:52.923Z,97.80
2019-03-31T05:41:23.999Z,83.03
2019-03-31T05:44:05.139Z,71.33
2019-03-31T05:46:25.302Z,75.30
2019-03-31T05:48:54.977Z,70.10
2019-03-31T05:51:25.030Z,69.17
2019-03-31T05:53:54.679Z,62.60
2019-03-31T05:56:24.366Z,66.00
2019-03-31T05:58:54.037Z,67.27
2019-03-31T06:01:24.466Z,72.10
2019-03-31T06:03:54.184Z,68.33
2019-03-31T06:06:24.093Z,64.30
2019-03-31T06:08:53.918Z,74.50
2019-03-31T06:11:23.763Z,66.47
2019-03-31T06:13:53.507Z,71.33
2019-03-31T06:16:23.967Z,70.30
2019-03-31T06:18:53.558Z,72.53
2019-03-31T06:21:23.246Z,63.17
2019-03-31T06:23:53.137Z,60.73
2019-03-31T06:26:23.612Z,61.77
2019-03-31T06:28:54.889Z,53.70
2019-03-31T06:31:24.819Z,58.30
2019-03-31T06:33:54.412Z,53.37
2019-03-31T06:36:24.217Z,52.53
2019-03-31T06:38:53.838Z,56.60
2019-03-31T06:41:23.638Z,53.50
2019-03-31T06:43:53.353Z,50.47
2019-03-31T06:46:22.962Z,48.10
2019-03-31T06:48:52.694Z,49.40
2019-03-31T06:51:22.872Z,47.63
2019-03-31T06:53:52.626Z,49.03
2019-03-31T06:56:23.762Z,42.30
2019-03-31T06:58:53.394Z,44.90
2019-03-31T07:01:23.153Z,44.83
2019-03-31T07:03:52.907Z,44.97
2019-03-31T07:06:22.634Z,45.17
2019-03-31T07:08:52.248Z,37.00
2019-03-31T07:11:21.972Z,45.97
2019-03-31T07:13:51.676Z,41.50
2019-03-31T07:16:21.368Z,37.13
2019-03-31T07:18:52.589Z,40.30
2019-03-31T07:21:22.148Z,37.60
2019-03-31T07:23:53.396Z,40.70
2019-03-31T07:26:23.028Z,38.47
2019-03-31T07:28:52.778Z,42.10
2019-03-31T07:31:22.578Z,38.53
2019-03-31T07:33:52.415Z,31.90
2019-03-31T07:36:23.356Z,32.63
2019-03-31T07:38:53.775Z,42.40
2019-03-31T07:41:23.926Z,35.73
2019-03-31T07:43:54.523Z,37.73
2019-03-31T07:46:24.072Z,30.50
2019-03-31T07:48:55.377Z,33.90
2019-03-31T07:51:25.066Z,34.83
2019-03-31T07:53:56.294Z,31.90
2019-03-31T07:56:26.552Z,29.93
2019-03-31T07:58:56.214Z,21.93
2019-03-31T08:01:26.382Z,23.33
2019-03-31T08:03:56.157Z,24.60
2019-03-31T08:06:25.801Z,26.53
2019-03-31T08:08:56.409Z,21.73
2019-03-31T08:11:26.088Z,23.70
2019-03-31T08:13:55.657Z,21.73
2019-03-31T08:16:25.489Z,18.17
2019-03-31T08:18:55.908Z,16.00
2019-03-31T08:21:25.594Z,20.10
2019-03-31T08:23:55.243Z,18.40
2019-03-31T08:26:25.018Z,16.07
2019-03-31T08:28:54.595Z,14.73
2019-03-31T08:31:24.342Z,21.80
2019-03-31T08:33:54.020Z,13.20
2019-03-31T08:36:23.775Z,10.83
2019-03-31T08:38:54.035Z,11.30
2019-03-31T08:41:24.518Z,11.90
2019-03-31T08:43:55.711Z,10.60
2019-03-31T08:46:25.571Z,11.40
2019-03-31T08:48:55.837Z,10.37
2019-03-31T08:51:25.606Z,13.90
2019-03-31T08:53:55.557Z,9.60
2019-03-31T08:56:25.386Z,9.13
2019-03-31T08:58:55.678Z,12.60
2019-03-31T09:01:25.822Z,13.37
2019-03-31T09:03:55.548Z,13.97
2019-03-31T09:06:26.925Z,10.50
2019-03-31T09:08:56.915Z,13.70
2019-03-31T09:11:27.114Z,12.33
2019-03-31T09:13:56.803Z,8.50
2019-03-31T09:16:26.552Z,11.87
2019-03-31T09:18:56.311Z,9.70
2019-03-31T09:21:26.252Z,7.27
2019-03-31T09:23:56.023Z,6.73
2019-03-31T09:26:25.799Z,6.53
2019-03-31T09:28:55.459Z,9.00
2019-03-31T09:31:26.317Z,8.50
2019-03-31T09:33:55.892Z,10.87
2019-03-31T09:36:26.284Z,7.83
2019-03-31T09:38:56.170Z,8.43
2019-03-31T09:41:26.043Z,7.90
2019-03-31T09:43:56.436Z,9.03
2019-03-31T09:46:26.407Z,8.13
2019-03-31T09:48:56.207Z,7.30
2019-03-31T09:51:26.184Z,7.43
2019-03-31T09:53:55.931Z,9.73
2019-03-31T09:56:25.687Z,7.87
2019-03-31T09:58:55.443Z,10.83
2019-03-31T10:01:25.514Z,10.33
2019-03-31T10:03:55.302Z,9.87
2019-03-31T10:06:30.577Z,11.43
2019-03-31T10:08:58.072Z,10.27
2019-03-31T10:11:28.366Z,10.30
2019-03-31T10:13:58.546Z,12.13
2019-03-31T10:16:28.220Z,11.87
2019-03-31T10:18:57.967Z,14.47
2019-03-31T10:21:28.547Z,10.20
2019-03-31T10:23:58.345Z,17.97
2019-03-31T10:26:32.021Z,11.77
2019-03-31T10:29:01.700Z,16.13
2019-03-31T10:31:31.966Z,14.07
2019-03-31T10:34:01.737Z,13.20
2019-03-31T10:36:43.832Z,13.33
2019-03-31T10:39:05.837Z,15.07
2019-03-31T10:41:36.121Z,15.30
2019-03-31T10:44:05.881Z,17.27
2019-03-31T10:46:37.072Z,14.97
2019-03-31T10:49:06.654Z,16.73
2019-03-31T10:51:37.041Z,12.87
2019-03-31T10:54:06.873Z,14.67
2019-03-31T10:56:36.775Z,16.17
2019-03-31T10:59:07.171Z,12.90
2019-03-31T11:01:37.140Z,12.83
2019-03-31T11:04:06.853Z,11.63
2019-03-31T11:06:36.889Z,9.30
2019-03-31T11:09:07.388Z,12.73
2019-03-31T11:11:37.040Z,10.77
2019-03-31T11:14:08.000Z,12.33
2019-03-31T11:16:37.789Z,10.70
2019-03-31T11:19:07.614Z,10.70
2019-03-31T11:21:40.565Z,11.57
2019-03-31T11:24:10.920Z,10.07
2019-03-31T11:26:40.590Z,11.50
2019-03-31T11:29:11.111Z,9.40
2019-03-31T11:31:40.854Z,13.63
2019-03-31T11:34:13.400Z,9.03
2019-03-31T11:36:43.561Z,7.07
2019-03-31T11:39:16.151Z,7.27
2019-03-31T11:41:46.300Z,5.90
2019-03-31T11:44:15.976Z,6.13
2019-03-31T11:46:45.664Z,5.83
2019-03-31T11:49:16.009Z,6.67
2019-03-31T11:51:46.724Z,6.80
2019-03-31T11:54:16.554Z,9.43
2019-03-31T11:56:46.456Z,9.10
2019-03-31T11:59:16.213Z,7.37
2019-03-31T12:01:46.096Z,8.47
2019-03-31T12:04:16.125Z,5.63
2019-03-31T12:06:45.823Z,7.37
2019-03-31T12:09:15.468Z,7.57
2019-03-31T12:11:45.844Z,10.70
2019-03-31T12:14:15.768Z,5.70
2019-03-31T12:16:45.435Z,12.20
2019-03-31T12:19:15.191Z,5.67
2019-03-31T12:21:45.549Z,7.77
2019-03-31T12:24:15.225Z,7.60
2019-03-31T12:26:45.207Z,6.53
2019-03-31T12:29:18.049Z,12.80
2019-03-31T12:31:47.754Z,8.40
2019-03-31T12:34:17.524Z,9.10
2019-03-31T12:36:47.183Z,5.73
2019-03-31T12:39:17.996Z,4.40
2019-03-31T12:41:49.123Z,6.17
2019-03-31T12:44:19.484Z,6.83
2019-03-31T12:46:49.715Z,5.97
2019-03-31T12:49:19.513Z,7.27
2019-03-31T12:51:49.658Z,6.70
2019-03-31T12:54:19.487Z,6.83
2019-03-31T12:56:52.336Z,5.53
2019-03-31T12:59:22.166Z,9.17
2019-03-31T13:01:52.016Z,5.10
2019-03-31T13:04:22.645Z,10.97
2019-03-31T13:06:52.997Z,7.77
2019-03-31T13:09:22.873Z,8.20
2019-03-31T13:11:53.074Z,6.37
2019-03-31T13:14:24.753Z,4.37
2019-03-31T13:16:57.265Z,7.83
2019-03-31T13:19:27.719Z,6.97
2019-03-31T13:21:57.336Z,6.70
2019-03-31T13:24:27.158Z,7.67
2019-03-31T13:26:58.067Z,12.50
2019-03-31T13:29:29.921Z,9.53
2019-03-31T13:32:01.051Z,7.03
2019-03-31T13:34:32.393Z,8.30
2019-03-31T13:37:02.363Z,8.27
2019-03-31T13:39:32.248Z,11.80
2019-03-31T13:42:05.691Z,7.27
2019-03-31T13:44:36.450Z,8.50
2019-03-31T13:47:07.112Z,8.43
2019-03-31T13:49:36.880Z,10.57
2019-03-31T13:52:28.538Z,6.47
2019-03-31T13:54:59.288Z,9.67
2019-03-31T13:57:30.160Z,6.53
2019-03-31T14:00:01.064Z,9.67
2019-03-31T14:02:30.727Z,7.07
2019-03-31T14:05:00.451Z,13.30
2019-03-31T14:07:30.166Z,12.13
2019-03-31T14:10:00.476Z,5.00
2019-03-31T14:12:30.430Z,9.80
2019-03-31T14:15:00.414Z,9.27
2019-03-31T14:17:30.135Z,8.40
2019-03-31T14:20:00.361Z,8.87
2019-03-31T14:22:29.961Z,10.33
2019-03-31T14:24:59.846Z,9.97
2019-03-31T14:27:29.677Z,9.03
2019-03-31T14:30:02.326Z,10.90
2019-03-31T14:32:32.089Z,7.60
2019-03-31T14:35:03.275Z,5.23
2019-03-31T14:37:33.077Z,9.77
2019-03-31T14:40:02.895Z,10.93
2019-03-31T14:42:32.588Z,10.10
2019-03-31T14:45:03.510Z,8.13
2019-03-31T14:47:33.278Z,7.27
2019-03-31T14:50:03.214Z,8.77
2019-03-31T14:52:32.899Z,10.80
2019-03-31T14:55:02.744Z,7.10
2019-03-31T14:57:32.430Z,10.20
2019-03-31T15:00:14.174Z,11.27
2019-03-31T15:02:34.446Z,13.67
2019-03-31T15:05:05.616Z,6.30
2019-03-31T15:07:48.567Z,8.43
2019-03-31T15:10:18.341Z,8.87
2019-03-31T15:12:51.463Z,8.03
2019-03-31T15:15:21.138Z,8.80
2019-03-31T15:17:50.771Z,13.83
2019-03-31T15:20:20.527Z,10.50
2019-03-31T15:22:51.597Z,8.97
2019-03-31T15:25:21.503Z,8.20
2019-03-31T15:27:51.599Z,5.90
2019-03-31T15:30:22.107Z,5.63
2019-03-31T15:32:51.754Z,7.70
2019-03-31T15:35:21.698Z,6.93
2019-03-31T15:37:51.970Z,10.07
2019-03-31T15:40:23.226Z,12.87
2019-03-31T15:42:53.006Z,6.73
2019-03-31T15:45:22.731Z,7.83
2019-03-31T15:47:58.027Z,13.53
2019-03-31T15:50:28.886Z,8.30
2019-03-31T15:52:58.900Z,8.83
2019-03-31T15:55:28.726Z,7.80
2019-03-31T15:57:58.398Z,10.97
2019-03-31T16:00:28.276Z,6.23
2019-03-31T16:02:58.183Z,8.43
2019-03-31T16:05:28.047Z,7.23
2019-03-31T16:07:57.934Z,9.80
2019-03-31T16:10:30.620Z,9.73
2019-03-31T16:13:00.594Z,10.17
2019-03-31T16:15:30.364Z,8.33
2019-03-31T16:18:00.058Z,9.03
2019-03-31T16:20:29.947Z,7.13
2019-03-31T16:22:59.882Z,6.20
2019-03-31T16:25:31.288Z,6.33
2019-03-31T16:28:01.734Z,8.03
2019-03-31T16:30:32.014Z,11.97
2019-03-31T16:33:01.899Z,8.57
2019-03-31T16:35:31.513Z,9.27
2019-03-31T16:38:01.188Z,8.70
2019-03-31T16:40:31.543Z,6.57
2019-03-31T16:43:04.784Z,7.97
2019-03-31T16:45:34.534Z,19.53
2019-03-31T16:48:04.291Z,11.80
2019-03-31T16:50:33.937Z,9.90
2019-03-31T16:53:03.612Z,8.70
2019-03-31T16:55:33.365Z,8.30
2019-03-31T16:58:03.184Z,9.17
2019-03-31T17:00:33.238Z,7.47
2019-03-31T17:03:03.982Z,7.90
2019-03-31T17:05:33.693Z,8.87
2019-03-31T17:08:04.086Z,5.07
2019-03-31T17:10:33.885Z,7.97
2019-03-31T17:13:03.593Z,8.20
2019-03-31T17:15:33.278Z,8.47
2019-03-31T17:18:04.275Z,8.73
2019-03-31T17:20:35.972Z,7.63
2019-03-31T17:23:05.773Z,10.13
2019-03-31T17:25:35.660Z,8.30
2019-03-31T17:28:05.391Z,10.00
2019-03-31T17:30:35.172Z,8.90
2019-03-31T17:33:04.980Z,7.43
2019-03-31T17:35:34.879Z,5.63
2019-03-31T17:38:05.056Z,9.43
2019-03-31T17:40:35.402Z,6.83
2019-03-31T17:43:05.142Z,7.83
2019-03-31T17:45:34.984Z,4.97
2019-03-31T17:48:05.205Z,7.77
2019-03-31T17:50:35.265Z,6.53
2019-03-31T17:53:05.101Z,5.57
2019-03-31T17:55:35.077Z,5.03
2019-03-31T17:58:04.802Z,9.23
2019-03-31T18:00:34.608Z,7.40
2019-03-31T18:03:07.392Z,5.47
2019-03-31T18:05:38.889Z,9.23
2019-03-31T18:08:08.524Z,9.77
2019-03-31T18:10:38.681Z,5.37
2019-03-31T18:13:08.578Z,4.53
2019-03-31T18:15:38.291Z,5.20
2019-03-31T18:18:08.862Z,5.17
2019-03-31T18:20:38.629Z,6.93
2019-03-31T18:23:08.485Z,5.47
2019-03-31T18:25:38.506Z,7.67
2019-03-31T18:28:08.444Z,5.43
2019-03-31T18:30:38.081Z,7.37
2019-03-31T18:33:07.804Z,4.07
2019-03-31T18:35:37.413Z,6.03
2019-03-31T18:38:07.125Z,4.33
2019-03-31T18:40:38.267Z,5.27
2019-03-31T18:43:08.176Z,7.47
2019-03-31T18:45:37.812Z,7.07
2019-03-31T18:48:07.551Z,9.53
2019-03-31T18:50:56.609Z,4.13
2019-03-31T18:53:32.472Z,5.00
2019-03-31T18:56:21.868Z,5.43
2019-03-31T18:58:59.046Z,7.63
2019-03-31T19:01:47.688Z,7.63
2019-03-31T19:04:29.222Z,6.87
2019-03-31T19:06:58.907Z,7.47
2019-03-31T19:09:33.082Z,6.83
2019-03-31T19:12:19.595Z,11.90
2019-03-31T19:14:51.084Z,12.57
2019-03-31T19:17:21.502Z,9.00
2019-03-31T19:19:51.430Z,9.20
2019-03-31T19:22:23.368Z,10.30
2019-03-31T19:25:10.190Z,8.13
2019-03-31T19:27:39.634Z,13.70
2019-03-31T19:30:10.968Z,7.07
2019-03-31T19:32:45.217Z,7.17
2019-03-31T19:35:23.999Z,8.33
2019-03-31T19:38:13.983Z,9.47
2019-03-31T19:40:47.823Z,9.63
2019-03-31T19:43:22.806Z,8.23
2019-03-31T19:46:05.551Z,7.80
2019-03-31T19:48:40.814Z,6.17
2019-03-31T19:51:15.441Z,9.17
2019-03-31T19:53:56.537Z,9.57
2019-03-31T19:56:26.094Z,11.40
2019-03-31T19:58:55.715Z,7.77
2019-03-31T20:01:40.586Z,6.53
2019-03-31T20:04:12.068Z,6.13
2019-03-31T20:06:44.325Z,4.03
2019-03-31T20:09:32.144Z,7.17
2019-03-31T20:12:22.267Z,7.23
2019-03-31T20:15:01.381Z,7.23
2019-03-31T20:17:36.005Z,6.53
2019-03-31T20:20:25.412Z,11.60
2019-03-31T20:23:10.662Z,8.40
2019-03-31T20:25:57.807Z,6.97
2019-03-31T20:28:45.033Z,5.70
2019-03-31T20:31:33.257Z,6.10
2019-03-31T20:34:05.441Z,8.13
2019-03-31T20:36:39.688Z,6.60
2019-03-31T20:39:20.857Z,6.77
2019-03-31T20:42:01.502Z,5.03
2019-03-31T20:44:32.534Z,5.33
2019-03-31T20:47:03.773Z,9.57
2019-03-31T20:49:33.361Z,8.53
2019-03-31T20:52:03.623Z,7.47
2019-03-31T20:54:33.447Z,10.73
2019-03-31T20:57:03.545Z,8.33
2019-03-31T20:59:33.263Z,10.50
2019-03-31T21:02:03.051Z,7.73
2019-03-31T21:04:32.676Z,9.07
2019-03-31T21:07:02.534Z,11.30
2019-03-31T21:09:44.271Z,7.13
2019-03-31T21:12:03.691Z,12.80
2019-03-31T21:14:33.411Z,8.73
2019-03-31T21:17:03.252Z,9.53
2019-03-31T21:19:32.796Z,11.30
2019-03-31T21:22:02.940Z,12.97
2019-03-31T21:24:32.682Z,5.63
2019-03-31T21:27:02.404Z,6.47
2019-03-31T21:29:32.071Z,10.33
2019-03-31T21:32:01.777Z,12.50
2019-03-31T21:34:31.610Z,10.27
2019-03-31T21:37:01.279Z,9.60
2019-03-31T21:39:31.014Z,9.73
2019-03-31T21:42:00.769Z,4.43
2019-03-31T21:44:30.778Z,7.90
2019-03-31T21:47:00.766Z,3.63
2019-03-31T21:49:30.461Z,9.30
2019-03-31T21:52:00.275Z,7.07
2019-03-31T21:54:31.613Z,9.57
2019-03-31T21:57:03.256Z,9.77
2019-03-31T21:59:34.596Z,9.93
2019-03-31T22:02:04.311Z,8.60
2019-03-31T22:04:34.241Z,9.43
2019-03-31T22:07:04.073Z,7.57
2019-03-31T22:09:33.790Z,6.93
2019-03-31T22:12:03.578Z,8.67
2019-03-31T22:14:33.265Z,4.57
2019-03-31T22:17:03.012Z,7.37
2019-03-31T22:19:32.729Z,3.70
2019-03-31T22:22:02.765Z,7.07
2019-03-31T22:24:32.611Z,5.97
2019-03-31T22:27:03.884Z,3.77
2019-03-31T22:29:33.612Z,10.73
2019-03-31T22:32:03.504Z,10.13
2019-03-31T22:34:33.424Z,9.20
2019-03-31T22:37:02.980Z,6.07
2019-03-31T22:39:32.765Z,8.40
2019-03-31T22:42:02.475Z,8.47
2019-03-31T22:44:32.380Z,7.17
2019-03-31T22:47:02.004Z,5.47
2019-03-31T22:49:31.656Z,6.80
2019-03-31T22:52:01.364Z,9.40
2019-03-31T22:54:31.199Z,4.03
2019-03-31T22:57:00.784Z,7.87
2019-03-31T22:59:30.506Z,7.60
2019-03-31T23:02:00.215Z,5.13
2019-03-31T23:04:29.985Z,8.73
2019-03-31T23:06:59.631Z,6.50
2019-03-31T23:09:29.586Z,5.47
2019-03-31T23:11:59.454Z,3.73
2019-03-31T23:14:29.086Z,6.83
2019-03-31T23:16:58.915Z,6.90
2019-03-31T23:19:28.553Z,3.53
2019-03-31T23:21:58.289Z,7.20
2019-03-31T23:24:28.126Z,6.63
2019-03-31T23:26:58.189Z,7.90
2019-03-31T23:29:27.856Z,3.30
2019-03-31T23:31:57.556Z,7.60
2019-03-31T23:34:28.684Z,10.67
2019-03-31T23:36:59.871Z,8.23
2019-03-31T23:39:30.970Z,7.23
2019-03-31T23:42:01.807Z,6.40
2019-03-31T23:44:31.364Z,7.80
2019-03-31T23:47:01.191Z,9.07
2019-03-31T23:49:30.787Z,8.33
2019-03-31T23:52:02.084Z,5.57
2019-03-31T23:54:31.769Z,7.53
2019-03-31T23:57:01.425Z,7.87
2019-03-31T23:59:31.139Z,6.87
